Warren, MI (48090)

2:15 PM EDT on May 04, 2015 (GMT -0400)
Eagle Pointe | | Change Station
CLOSE
Current Station
Personal Weather Station
Location: St. Clair Shores, MI
Elevation: 584 ft
Nearby Weather Stations

Elev 584 ft 42.48 °N, 82.89 °W | Updated 1 second ago

Mostly Cloudy
Mostly Cloudy
72.5 °F
Feels Like 75 °F
N
1.0
Wind Variable Wind from WSW
Gusts 11.0 mph

Today
High -- | Low -- °F
--% Chance of Precip.
Yesterday
High -- | Low -- °F
Precip. -- in
6:22 AM 8:34 PM
Full, 100% visible
Pressure 30.05 in
Visibility 10.0 miles
Clouds Overcast 9000 ft
Heat Index 75 °F
Dew Point 62 °F
Humidity 70%
Rainfall 0.00 in
Snow Depth Not available.
UV 3 out of 12
Pollen 8.70 out of 12
Air Quality Not available.
Flu Activity Regional
METAR KDET 041753Z 24011G18KT 10SM OVC090 21/14 A3005 RMK AO2 SLP174 60003 T02110139 10217 20172 50006

More Conditions Fewer Conditions

Pressure 30.05 in
Visibility 10.0 miles
Clouds Overcast 9000 ft
Heat Index 75 °F
Dew Point 62 °F
Humidity 70%
Rainfall 0.00 in
Snow Depth Not available.
UV 3 out of 12
Pollen 8.70 out of 12
Air Quality Not available.
Flu Activity Regional
METAR KDET 041753Z 24011G18KT 10SM OVC090 21/14 A3005 RMK AO2 SLP174 60003 T02110139 10217 20172 50006

More Conditions Fewer Conditions

Nepal has a long way to go to dig out and rebuild from a devastating earthquake. We have teamed up with several charities and organizations to make contributing to the relief effort as easy as possible.
How you can help: Portlight Strategies | Red Cross

10-Day Weather Forecast

Almanac

Astronomy

May. 04, 2015 Rise Set
Actual Time
Civil Twilight
Nautical Twilight
Astronomical Twilight
Moon
Length of Visible Light
Length of Day
Tomorrow will be .
, % of the Moon is Illuminated

Today's Extremes

State Highs State Lows

Community

WunderPhotos

Upload Photos

1,818,663 photos uploaded!

WunderBlogs® & News

Nearby

Air Quality

  Air Quality AQ Index Pollutant
Not available.

Snow Depth

Station Depth Elevation

Earthquake Activity

City Distance Mag. Time & Date
Minimum magnitude displayed is 2.5.

Coastal Water Temperatures

Place Temperature

Stations

Nearby Weather Stations

Station Location Temp. Windchill Dew Point Humidity Wind Precip. Elev Updated Type